createdAt,value
2023-04-16T00:01:28.405Z,87.34
2023-04-16T00:03:55.760Z,87.27
2023-04-16T00:06:23.206Z,87.10
2023-04-16T00:08:51.556Z,87.20
2023-04-16T00:11:18.269Z,87.20
2023-04-16T00:13:45.004Z,87.06
2023-04-16T00:16:11.751Z,86.75
2023-04-16T00:18:39.342Z,87.14
2023-04-16T00:21:07.083Z,86.51
2023-04-16T00:23:33.987Z,86.51
2023-04-16T00:26:00.780Z,86.70
2023-04-16T00:28:27.688Z,86.61
2023-04-16T00:30:55.186Z,87.00
2023-04-16T00:33:23.892Z,87.15
2023-04-16T00:35:51.176Z,87.87
2023-04-16T00:38:17.976Z,87.98
2023-04-16T00:40:44.670Z,87.89
2023-04-16T00:43:11.403Z,87.57
2023-04-16T00:45:38.553Z,87.84
2023-04-16T00:48:05.972Z,87.20
2023-04-16T00:50:33.347Z,87.25
2023-04-16T00:53:00.705Z,86.87
2023-04-16T00:55:27.546Z,87.13
2023-04-16T00:57:54.301Z,87.47
2023-04-16T01:00:21.519Z,87.55
2023-04-16T01:02:48.480Z,87.51
2023-04-16T01:05:16.440Z,87.39
2023-04-16T01:07:43.188Z,87.42
2023-04-16T01:10:10.072Z,88.14
2023-04-16T01:12:36.780Z,88.13
2023-04-16T01:15:03.745Z,88.17
2023-04-16T01:17:30.476Z,88.45
2023-04-16T01:20:00.606Z,88.20
2023-04-16T01:22:28.360Z,88.01
2023-04-16T01:24:55.062Z,88.19
2023-04-16T01:27:21.858Z,88.55
2023-04-16T01:29:48.637Z,88.70
2023-04-16T01:32:15.517Z,88.38
2023-04-16T01:34:42.206Z,87.74
2023-04-16T01:37:09.028Z,88.10
2023-04-16T01:39:35.704Z,88.27
2023-04-16T01:42:02.581Z,88.42
2023-04-16T01:44:30.897Z,88.54
2023-04-16T01:46:57.787Z,88.27
2023-04-16T01:49:24.766Z,88.46
2023-04-16T01:51:51.687Z,88.96
2023-04-16T01:54:18.430Z,89.15
2023-04-16T01:56:45.310Z,88.92
2023-04-16T01:59:12.400Z,88.85
2023-04-16T02:01:39.410Z,88.12
2023-04-16T02:04:07.456Z,88.06
2023-04-16T02:06:34.330Z,88.18
2023-04-16T02:09:01.062Z,88.06
2023-04-16T02:11:27.821Z,87.94
2023-04-16T02:13:54.592Z,88.20
2023-04-16T02:16:21.432Z,88.22
2023-04-16T02:18:48.170Z,88.01
2023-04-16T02:21:14.893Z,88.21
2023-04-16T02:23:41.637Z,88.34
2023-04-16T02:26:08.364Z,87.82
2023-04-16T02:28:35.148Z,87.40
2023-04-16T02:31:01.847Z,87.73
2023-04-16T02:33:28.721Z,88.15
2023-04-16T02:35:55.524Z,88.23
2023-04-16T02:38:22.260Z,88.17
2023-04-16T02:40:49.101Z,88.04
2023-04-16T02:43:15.852Z,88.13
2023-04-16T02:45:42.712Z,87.90
2023-04-16T02:48:09.993Z,87.71
2023-04-16T02:50:36.681Z,87.21
2023-04-16T02:53:04.376Z,87.33
2023-04-16T02:55:31.131Z,87.56
2023-04-16T02:57:57.842Z,87.71
2023-04-16T03:00:24.623Z,87.86
2023-04-16T03:02:51.579Z,87.71
2023-04-16T03:05:18.508Z,87.29
2023-04-16T03:07:45.386Z,87.78
2023-04-16T03:10:13.353Z,87.74
2023-04-16T03:12:40.114Z,87.35
2023-04-16T03:15:07.278Z,87.59
2023-04-16T03:17:34.160Z,87.98
2023-04-16T03:20:00.970Z,88.22
2023-04-16T03:22:27.736Z,88.27
2023-04-16T03:24:54.511Z,87.84
2023-04-16T03:27:21.272Z,88.37
2023-04-16T03:29:48.007Z,87.90
2023-04-16T03:32:14.784Z,87.42
2023-04-16T03:34:41.474Z,87.88
2023-04-16T03:37:11.921Z,87.96
2023-04-16T03:39:38.864Z,88.52
2023-04-16T03:42:05.607Z,88.39
2023-04-16T03:44:32.303Z,88.68
2023-04-16T03:46:59.223Z,88.27
2023-04-16T03:49:26.121Z,88.49
2023-04-16T03:51:52.857Z,88.09
2023-04-16T03:54:21.293Z,87.78
2023-04-16T03:56:49.257Z,87.64
2023-04-16T03:59:16.011Z,87.79
2023-04-16T04:01:42.783Z,88.22
2023-04-16T04:04:09.951Z,88.48
2023-04-16T04:06:36.745Z,88.05
2023-04-16T04:09:03.962Z,87.56
2023-04-16T04:11:30.677Z,87.04
2023-04-16T04:13:57.405Z,87.47
2023-04-16T04:16:24.141Z,87.68
2023-04-16T04:18:50.853Z,88.30
2023-04-16T04:21:17.610Z,88.55
2023-04-16T04:23:44.484Z,88.48
2023-04-16T04:26:11.344Z,88.56
2023-04-16T04:28:38.006Z,88.14
2023-04-16T04:31:04.886Z,88.03
2023-04-16T04:33:31.701Z,88.13
2023-04-16T04:35:58.475Z,88.27
2023-04-16T04:38:25.396Z,88.13
2023-04-16T04:40:53.022Z,87.64
2023-04-16T04:43:20.372Z,87.36
2023-04-16T04:45:47.400Z,87.49
2023-04-16T04:48:14.149Z,87.53
2023-04-16T04:50:41.530Z,87.29
2023-04-16T04:53:11.457Z,87.37
2023-04-16T04:55:38.917Z,87.63
2023-04-16T04:58:06.550Z,87.53
2023-04-16T05:00:33.776Z,87.71
2023-04-16T05:03:06.109Z,88.00
2023-04-16T05:05:33.037Z,88.49
2023-04-16T05:07:59.843Z,88.56
2023-04-16T05:10:27.269Z,88.79
2023-04-16T05:12:53.995Z,88.63
2023-04-16T05:15:20.737Z,88.57
2023-04-16T05:17:47.510Z,88.57
2023-04-16T05:20:14.585Z,88.32
2023-04-16T05:22:41.436Z,88.49
2023-04-16T05:25:08.567Z,88.62
2023-04-16T05:27:35.377Z,88.64
2023-04-16T05:30:02.467Z,88.88
2023-04-16T05:32:29.263Z,88.78
2023-04-16T05:34:56.006Z,89.34
2023-04-16T05:37:22.702Z,88.85
2023-04-16T05:39:49.413Z,88.16
2023-04-16T05:42:16.297Z,87.66
2023-04-16T05:44:43.042Z,87.83
2023-04-16T05:47:09.710Z,87.75
2023-04-16T05:49:39.197Z,87.98
2023-04-16T05:52:06.261Z,87.63
2023-04-16T05:54:32.928Z,87.14
2023-04-16T05:57:01.120Z,87.13
2023-04-16T05:59:28.114Z,87.68
2023-04-16T06:01:54.865Z,87.30
2023-04-16T06:04:21.630Z,87.73
2023-04-16T06:06:48.545Z,87.48
2023-04-16T06:09:15.382Z,86.91
2023-04-16T06:11:42.170Z,87.14
2023-04-16T06:14:08.889Z,86.48
2023-04-16T06:16:35.549Z,86.12
2023-04-16T06:19:02.369Z,86.26
2023-04-16T06:21:29.354Z,85.98
2023-04-16T06:23:56.218Z,86.31
2023-04-16T06:26:23.074Z,85.70
2023-04-16T06:28:50.378Z,85.60
2023-04-16T06:31:17.174Z,85.84
2023-04-16T06:33:43.935Z,85.89
2023-04-16T06:36:11.541Z,85.59
2023-04-16T06:38:38.507Z,86.25
2023-04-16T06:41:05.383Z,86.41
2023-04-16T06:43:33.511Z,86.00
2023-04-16T06:46:00.277Z,85.31
2023-04-16T06:48:27.436Z,84.73
2023-04-16T06:50:55.000Z,84.64
2023-04-16T06:53:21.797Z,84.99
2023-04-16T06:55:48.472Z,84.00
2023-04-16T06:58:15.224Z,83.14
2023-04-16T07:00:42.008Z,83.15
2023-04-16T07:03:08.881Z,81.93
2023-04-16T07:05:36.063Z,82.12
2023-04-16T07:08:02.834Z,81.09
2023-04-16T07:10:29.600Z,79.91
2023-04-16T07:12:56.356Z,79.06
2023-04-16T07:15:23.125Z,79.31
2023-04-16T07:17:49.914Z,78.79
2023-04-16T07:20:18.277Z,79.33
2023-04-16T07:22:45.058Z,80.96
2023-04-16T07:25:11.756Z,79.71
2023-04-16T07:27:38.509Z,79.59
2023-04-16T07:30:05.932Z,78.44
2023-04-16T07:32:32.756Z,77.63
2023-04-16T07:34:59.592Z,77.77
2023-04-16T07:37:26.400Z,76.12
2023-04-16T07:39:53.195Z,74.81
2023-04-16T07:42:20.846Z,73.71
2023-04-16T07:44:47.638Z,73.20
2023-04-16T07:47:14.288Z,70.60
2023-04-16T07:49:40.975Z,69.26
2023-04-16T07:52:07.679Z,71.08
2023-04-16T07:54:34.520Z,70.05
2023-04-16T07:57:01.295Z,67.91
2023-04-16T07:59:28.108Z,67.38
2023-04-16T08:01:55.088Z,67.10
2023-04-16T08:04:25.730Z,63.31
2023-04-16T08:06:53.808Z,62.44
2023-04-16T08:09:21.653Z,62.35
2023-04-16T08:11:49.876Z,60.00
2023-04-16T08:14:17.196Z,59.27
2023-04-16T08:16:43.930Z,59.27
2023-04-16T08:19:11.022Z,59.23
2023-04-16T08:21:38.038Z,60.73
2023-04-16T08:24:04.802Z,59.49
2023-04-16T08:26:31.475Z,58.22
2023-04-16T08:28:58.217Z,59.26
2023-04-16T08:31:25.038Z,58.95
2023-04-16T08:33:51.811Z,58.47
2023-04-16T08:36:18.586Z,58.40
2023-04-16T08:38:45.282Z,58.27
2023-04-16T08:41:13.208Z,57.69
2023-04-16T08:43:45.082Z,54.92
2023-04-16T08:46:12.460Z,54.82
2023-04-16T08:48:43.188Z,56.37
2023-04-16T08:51:11.171Z,54.26
2023-04-16T08:53:49.349Z,54.21
2023-04-16T08:56:17.338Z,54.47
2023-04-16T08:58:45.385Z,54.56
2023-04-16T09:01:12.203Z,53.80
2023-04-16T09:03:39.431Z,52.27
2023-04-16T09:06:06.553Z,49.14
2023-04-16T09:08:35.748Z,51.69
2023-04-16T09:11:02.560Z,52.17
2023-04-16T09:13:30.648Z,52.11
2023-04-16T09:15:57.821Z,50.09
2023-04-16T09:18:24.784Z,49.81
2023-04-16T09:20:52.127Z,53.08
2023-04-16T09:23:18.887Z,49.19
2023-04-16T09:25:45.625Z,51.45
2023-04-16T09:28:12.492Z,49.70
2023-04-16T09:30:39.281Z,49.39
2023-04-16T09:33:22.354Z,48.75
2023-04-16T09:35:50.858Z,46.95
2023-04-16T09:38:18.021Z,48.19
2023-04-16T09:40:45.192Z,48.14
2023-04-16T09:43:18.988Z,47.96
2023-04-16T09:45:52.655Z,50.30
2023-04-16T09:48:30.011Z,48.43
2023-04-16T09:50:57.902Z,50.79
2023-04-16T09:53:29.659Z,48.41
2023-04-16T09:56:05.035Z,50.16
2023-04-16T09:58:32.377Z,49.25
2023-04-16T10:01:03.277Z,51.71
2023-04-16T10:03:31.892Z,50.07
2023-04-16T10:06:18.502Z,49.52
2023-04-16T10:08:52.688Z,50.33
2023-04-16T10:11:20.495Z,50.88
2023-04-16T10:13:47.382Z,50.95
2023-04-16T10:16:14.220Z,51.20
2023-04-16T10:18:42.853Z,50.98
2023-04-16T10:21:12.959Z,49.97
2023-04-16T10:23:40.349Z,50.16
2023-04-16T10:26:07.205Z,50.47
2023-04-16T10:28:35.540Z,51.04
2023-04-16T10:31:04.128Z,50.39
2023-04-16T10:33:36.470Z,51.45
2023-04-16T10:36:10.439Z,51.41
2023-04-16T10:38:53.756Z,50.65
2023-04-16T10:41:21.140Z,48.97
2023-04-16T10:43:49.584Z,49.25
2023-04-16T10:46:27.322Z,48.79
2023-04-16T10:48:54.788Z,48.97
2023-04-16T10:51:26.082Z,48.73
2023-04-16T10:53:55.048Z,47.34
2023-04-16T10:56:27.922Z,46.50
2023-04-16T10:58:56.298Z,43.96
2023-04-16T11:01:34.059Z,40.89
2023-04-16T11:04:22.281Z,42.20
2023-04-16T11:07:07.595Z,39.36
2023-04-16T11:09:54.583Z,39.35
2023-04-16T11:12:23.767Z,38.02
2023-04-16T11:14:55.202Z,38.78
2023-04-16T11:17:22.393Z,38.56
2023-04-16T11:19:49.287Z,37.10
2023-04-16T11:22:17.610Z,37.21
2023-04-16T11:24:45.676Z,35.23
2023-04-16T11:27:14.010Z,34.81
2023-04-16T11:29:41.471Z,33.84
2023-04-16T11:32:08.300Z,34.07
2023-04-16T11:34:35.165Z,32.73
2023-04-16T11:37:01.948Z,33.49
2023-04-16T11:39:28.607Z,32.77
2023-04-16T11:41:56.011Z,32.81
2023-04-16T11:44:24.467Z,33.03
2023-04-16T11:46:52.237Z,33.23
2023-04-16T11:49:31.181Z,33.56
2023-04-16T11:51:58.516Z,35.51
2023-04-16T11:54:25.975Z,34.97
2023-04-16T11:56:53.686Z,36.63
2023-04-16T11:59:23.137Z,36.50
2023-04-16T12:01:52.040Z,35.18
2023-04-16T12:04:21.389Z,35.82
2023-04-16T12:07:07.940Z,36.45
2023-04-16T12:09:38.521Z,36.84
2023-04-16T12:12:07.058Z,36.12
2023-04-16T12:14:33.839Z,35.47
2023-04-16T12:17:22.407Z,34.45
2023-04-16T12:19:55.749Z,32.92
2023-04-16T12:22:28.307Z,34.26
2023-04-16T12:25:06.841Z,34.25
2023-04-16T12:27:51.482Z,34.83
2023-04-16T12:30:21.157Z,34.10
2023-04-16T12:32:49.988Z,33.53
2023-04-16T12:35:33.255Z,31.24
2023-04-16T12:38:00.665Z,30.19
2023-04-16T12:40:27.586Z,32.68
2023-04-16T12:42:54.905Z,30.40
2023-04-16T12:45:22.296Z,32.85
2023-04-16T12:47:50.536Z,30.87
2023-04-16T12:50:17.523Z,32.35
2023-04-16T12:52:44.377Z,30.05
2023-04-16T12:55:11.104Z,32.17
2023-04-16T12:57:37.840Z,32.97
2023-04-16T13:00:06.637Z,30.92
2023-04-16T13:02:34.123Z,33.33
2023-04-16T13:05:01.476Z,32.29
2023-04-16T13:07:28.315Z,34.02
2023-04-16T13:09:55.101Z,33.89
2023-04-16T13:12:21.862Z,36.35
2023-04-16T13:14:48.587Z,37.22
2023-04-16T13:17:15.484Z,34.64
2023-04-16T13:19:42.171Z,36.43
2023-04-16T13:22:09.409Z,36.72
2023-04-16T13:24:36.242Z,38.81
2023-04-16T13:27:03.092Z,38.99
2023-04-16T13:29:30.145Z,38.58
2023-04-16T13:31:57.365Z,39.11
2023-04-16T13:34:24.072Z,39.88
2023-04-16T13:36:50.758Z,38.85
2023-04-16T13:39:17.591Z,39.17
2023-04-16T13:41:44.383Z,40.41
2023-04-16T13:44:11.196Z,39.49
2023-04-16T13:46:38.064Z,38.54
2023-04-16T13:49:04.762Z,37.14
2023-04-16T13:51:32.116Z,36.10
2023-04-16T13:53:58.891Z,36.97
2023-04-16T13:56:26.017Z,35.92
2023-04-16T13:58:52.798Z,37.19
2023-04-16T14:01:19.785Z,37.13
2023-04-16T14:03:46.729Z,37.75
2023-04-16T14:06:14.990Z,36.35
2023-04-16T14:08:41.648Z,39.02
2023-04-16T14:11:09.159Z,38.02
2023-04-16T14:13:36.385Z,38.90
2023-04-16T14:16:03.164Z,40.02
2023-04-16T14:18:30.038Z,37.97
2023-04-16T14:20:56.837Z,38.20
2023-04-16T14:23:23.550Z,37.55
2023-04-16T14:25:50.269Z,39.04
2023-04-16T14:28:17.127Z,38.50
2023-04-16T14:30:43.902Z,37.93
2023-04-16T14:33:10.671Z,38.76
2023-04-16T14:35:37.454Z,39.50
2023-04-16T14:38:04.223Z,38.62
2023-04-16T14:40:31.277Z,37.66
2023-04-16T14:42:57.938Z,39.00
2023-04-16T14:45:28.995Z,39.94
2023-04-16T14:47:56.023Z,40.34
2023-04-16T14:50:22.855Z,39.63
2023-04-16T14:52:50.790Z,39.39
2023-04-16T14:55:17.535Z,39.87
2023-04-16T14:57:44.322Z,38.02
2023-04-16T15:00:11.993Z,37.55
2023-04-16T15:02:39.007Z,39.42
2023-04-16T15:05:07.823Z,38.79
2023-04-16T15:07:34.559Z,39.25
2023-04-16T15:10:01.325Z,38.69
2023-04-16T15:12:28.081Z,39.24
2023-04-16T15:14:54.869Z,36.57
2023-04-16T15:17:21.706Z,38.52
2023-04-16T15:19:48.551Z,39.01
2023-04-16T15:22:15.561Z,37.60
2023-04-16T15:24:42.275Z,38.18
2023-04-16T15:27:11.546Z,39.11
2023-04-16T15:29:38.763Z,39.57
2023-04-16T15:32:06.990Z,37.97
2023-04-16T15:34:33.713Z,38.22
2023-04-16T15:37:00.642Z,38.33
2023-04-16T15:39:27.475Z,38.29
2023-04-16T15:42:01.432Z,38.49
2023-04-16T15:44:31.040Z,39.85
2023-04-16T15:46:57.831Z,39.82
2023-04-16T15:49:24.850Z,42.25
2023-04-16T15:51:52.417Z,37.73
2023-04-16T15:54:19.307Z,38.39
2023-04-16T15:56:46.669Z,39.26
2023-04-16T15:59:13.692Z,39.37
2023-04-16T16:01:40.903Z,40.77
2023-04-16T16:04:08.199Z,41.24
2023-04-16T16:06:35.248Z,39.76
2023-04-16T16:09:02.038Z,41.11
2023-04-16T16:11:28.761Z,40.94
2023-04-16T16:13:55.505Z,41.24
2023-04-16T16:16:22.333Z,41.72
2023-04-16T16:18:49.049Z,42.70
2023-04-16T16:21:16.136Z,44.84
2023-04-16T16:23:42.899Z,44.09
2023-04-16T16:26:09.689Z,43.98
2023-04-16T16:28:38.956Z,42.99
2023-04-16T16:31:06.902Z,43.53
2023-04-16T16:33:33.743Z,43.61
2023-04-16T16:36:00.584Z,44.00
2023-04-16T16:38:27.665Z,46.19
2023-04-16T16:40:54.446Z,45.65
2023-04-16T16:43:21.446Z,47.00
2023-04-16T16:45:48.503Z,47.35
2023-04-16T16:48:15.313Z,47.38
2023-04-16T16:50:42.109Z,48.99
2023-04-16T16:53:09.138Z,49.61
2023-04-16T16:55:36.046Z,48.24
2023-04-16T16:58:03.449Z,49.15
2023-04-16T17:00:30.579Z,49.79
2023-04-16T17:02:57.504Z,49.87
2023-04-16T17:05:24.390Z,50.01
2023-04-16T17:07:51.121Z,50.31
2023-04-16T17:10:21.042Z,52.25
2023-04-16T17:12:51.161Z,52.10
2023-04-16T17:15:20.580Z,51.31
2023-04-16T17:17:48.445Z,50.87
2023-04-16T17:20:15.712Z,52.24
2023-04-16T17:22:42.695Z,52.09
2023-04-16T17:25:09.741Z,53.09
2023-04-16T17:27:36.725Z,52.76
2023-04-16T17:30:05.464Z,53.56
2023-04-16T17:32:32.886Z,53.54
2023-04-16T17:35:00.948Z,54.35
2023-04-16T17:37:27.860Z,54.41
2023-04-16T17:39:54.580Z,56.68
2023-04-16T17:42:21.685Z,56.10
2023-04-16T17:44:48.401Z,57.17
2023-04-16T17:47:15.084Z,57.83
2023-04-16T17:49:41.919Z,56.67
2023-04-16T17:52:08.692Z,57.80
2023-04-16T17:54:35.950Z,57.93
2023-04-16T17:57:02.934Z,59.13
2023-04-16T17:59:29.610Z,58.24
2023-04-16T18:01:56.734Z,58.96
2023-04-16T18:04:23.696Z,59.88
2023-04-16T18:06:50.905Z,59.10
2023-04-16T18:09:19.197Z,59.70
2023-04-16T18:11:46.046Z,58.90
2023-04-16T18:14:16.673Z,60.04
2023-04-16T18:16:43.449Z,59.87
2023-04-16T18:19:10.258Z,60.64
2023-04-16T18:21:37.025Z,61.09
2023-04-16T18:24:03.880Z,61.12
2023-04-16T18:26:31.171Z,61.96
2023-04-16T18:29:00.427Z,61.87
2023-04-16T18:31:27.927Z,61.66
2023-04-16T18:33:58.101Z,62.81
2023-04-16T18:36:26.817Z,61.75
2023-04-16T18:39:01.628Z,62.91
2023-04-16T18:41:29.626Z,62.23
2023-04-16T18:43:56.594Z,62.64
2023-04-16T18:46:23.562Z,62.02
2023-04-16T18:48:50.314Z,62.57
2023-04-16T18:51:17.169Z,61.31
2023-04-16T18:53:45.679Z,62.91
2023-04-16T18:56:12.711Z,63.30
2023-04-16T18:58:39.405Z,62.72
2023-04-16T19:01:11.016Z,63.09
2023-04-16T19:03:38.810Z,62.50
2023-04-16T19:06:06.254Z,63.22
2023-04-16T19:08:33.105Z,63.05
2023-04-16T19:10:59.999Z,62.76
2023-04-16T19:13:26.775Z,64.03
2023-04-16T19:16:00.857Z,63.67
2023-04-16T19:18:27.845Z,64.58
2023-04-16T19:21:01.433Z,64.34
2023-04-16T19:23:28.422Z,63.62
2023-04-16T19:25:58.308Z,64.56
2023-04-16T19:28:25.523Z,64.78
2023-04-16T19:30:53.238Z,63.74
2023-04-16T19:33:20.418Z,64.46
2023-04-16T19:35:47.662Z,64.78
2023-04-16T19:38:14.473Z,64.22
2023-04-16T19:40:45.040Z,64.53
2023-04-16T19:43:11.745Z,64.40
2023-04-16T19:45:52.405Z,65.23
2023-04-16T19:48:22.060Z,65.26
2023-04-16T19:50:48.902Z,65.50
2023-04-16T19:53:17.185Z,65.02
2023-04-16T19:55:44.050Z,65.41
2023-04-16T19:58:10.898Z,65.13
2023-04-16T20:00:38.900Z,64.84
2023-04-16T20:03:06.225Z,64.50
2023-04-16T20:05:33.152Z,64.12
2023-04-16T20:08:00.002Z,63.46
2023-04-16T20:10:27.727Z,63.88
2023-04-16T20:12:54.409Z,63.32
2023-04-16T20:15:21.101Z,63.44
2023-04-16T20:17:47.878Z,63.17
2023-04-16T20:20:15.858Z,63.03
2023-04-16T20:22:43.016Z,63.07
2023-04-16T20:25:10.113Z,63.44
2023-04-16T20:27:36.878Z,63.92
2023-04-16T20:30:05.459Z,64.34
2023-04-16T20:32:32.368Z,64.82
2023-04-16T20:34:59.765Z,65.36
2023-04-16T20:37:28.784Z,65.62
2023-04-16T20:39:56.094Z,65.61
2023-04-16T20:42:23.069Z,66.23
2023-04-16T20:44:56.149Z,66.30
2023-04-16T20:47:23.027Z,66.29
2023-04-16T20:49:49.898Z,66.27
2023-04-16T20:52:16.826Z,66.37
2023-04-16T20:54:43.681Z,66.60
2023-04-16T20:57:10.663Z,67.34
2023-04-16T20:59:37.504Z,67.11
2023-04-16T21:02:04.390Z,66.92
2023-04-16T21:04:31.679Z,67.26
2023-04-16T21:06:58.522Z,67.69
2023-04-16T21:09:25.345Z,67.41
2023-04-16T21:11:52.069Z,67.49
2023-04-16T21:14:18.798Z,67.31
2023-04-16T21:16:45.556Z,66.25
2023-04-16T21:19:12.397Z,66.83
2023-04-16T21:21:39.380Z,66.50
2023-04-16T21:24:06.548Z,66.72
2023-04-16T21:26:33.214Z,66.80
2023-04-16T21:28:59.996Z,65.87
2023-04-16T21:31:26.746Z,66.49
2023-04-16T21:33:53.636Z,66.60
2023-04-16T21:36:20.507Z,67.60
2023-04-16T21:38:47.323Z,67.68
2023-04-16T21:41:14.113Z,67.70
2023-04-16T21:43:40.748Z,67.89
2023-04-16T21:46:07.453Z,67.68
2023-04-16T21:48:34.202Z,67.48
2023-04-16T21:51:06.342Z,67.21
2023-04-16T21:53:33.479Z,66.51
2023-04-16T21:56:00.493Z,66.06
2023-04-16T21:58:27.286Z,66.24
2023-04-16T22:00:54.179Z,66.14
2023-04-16T22:03:28.322Z,66.13
2023-04-16T22:06:00.969Z,65.83
2023-04-16T22:08:28.942Z,64.81
2023-04-16T22:11:00.223Z,65.47
2023-04-16T22:13:27.812Z,65.54
2023-04-16T22:15:55.025Z,65.86
2023-04-16T22:18:27.088Z,65.70
2023-04-16T22:20:55.023Z,66.37
2023-04-16T22:23:25.540Z,67.04
2023-04-16T22:25:54.311Z,66.82
2023-04-16T22:28:21.170Z,66.35
2023-04-16T22:30:47.855Z,67.06
2023-04-16T22:33:14.639Z,66.82
2023-04-16T22:35:41.519Z,67.27
2023-04-16T22:38:08.283Z,67.83
2023-04-16T22:40:35.054Z,68.10
2023-04-16T22:43:01.736Z,68.23
2023-04-16T22:45:28.595Z,67.16
2023-04-16T22:47:55.323Z,66.09
2023-04-16T22:50:23.196Z,66.21
2023-04-16T22:52:49.986Z,64.42
2023-04-16T22:55:16.820Z,65.76
2023-04-16T22:57:43.655Z,66.91
2023-04-16T23:00:15.855Z,66.42
2023-04-16T23:02:43.229Z,66.34
2023-04-16T23:05:10.778Z,65.77
2023-04-16T23:07:37.685Z,66.36
2023-04-16T23:10:04.818Z,66.61
2023-04-16T23:12:31.514Z,67.03
2023-04-16T23:14:58.344Z,67.56
2023-04-16T23:17:25.198Z,68.30
2023-04-16T23:19:52.130Z,68.25
2023-04-16T23:22:18.880Z,68.37
2023-04-16T23:24:45.776Z,68.39
2023-04-16T23:27:12.610Z,67.71
2023-04-16T23:29:39.310Z,67.77
2023-04-16T23:32:06.048Z,68.14
2023-04-16T23:34:32.741Z,67.43
2023-04-16T23:36:59.453Z,67.45
2023-04-16T23:39:26.208Z,67.44
2023-04-16T23:41:52.948Z,67.54
2023-04-16T23:44:19.693Z,68.66
2023-04-16T23:46:46.412Z,68.90
2023-04-16T23:49:13.318Z,69.41
2023-04-16T23:51:40.222Z,70.13
2023-04-16T23:54:07.049Z,70.04
2023-04-16T23:56:33.856Z,70.64
2023-04-16T23:59:00.772Z,70.44
